createdAt,value
2018-05-16T00:02:11.140Z,16.90
2018-05-16T00:04:38.722Z,16.90
2018-05-16T00:07:06.258Z,16.90
2018-05-16T00:09:33.800Z,16.90
2018-05-16T00:12:01.393Z,17.00
2018-05-16T00:14:28.917Z,16.90
2018-05-16T00:16:56.736Z,16.90
2018-05-16T00:19:24.300Z,16.90
2018-05-16T00:21:51.874Z,16.90
2018-05-16T00:24:19.404Z,17.00
2018-05-16T00:26:47.009Z,16.90
2018-05-16T00:29:15.293Z,17.00
2018-05-16T00:31:42.831Z,16.90
2018-05-16T00:34:11.164Z,16.90
2018-05-16T00:36:38.695Z,16.90
2018-05-16T00:39:06.224Z,16.90
2018-05-16T00:41:34.542Z,16.90
2018-05-16T00:44:02.400Z,16.80
2018-05-16T00:46:29.933Z,16.90
2018-05-16T00:48:58.268Z,16.80
2018-05-16T00:51:32.358Z,16.80
2018-05-16T00:54:00.002Z,16.80
2018-05-16T00:56:27.540Z,16.80
2018-05-16T00:58:55.822Z,16.80
2018-05-16T01:01:24.157Z,16.80
2018-05-16T01:03:51.687Z,16.70
2018-05-16T01:06:19.225Z,16.70
2018-05-16T01:08:46.824Z,16.80
2018-05-16T01:11:14.359Z,16.70
2018-05-16T01:13:41.935Z,16.70
2018-05-16T01:16:09.481Z,16.70
2018-05-16T01:18:37.006Z,16.70
2018-05-16T01:21:05.317Z,16.60
2018-05-16T01:23:32.993Z,16.60
2018-05-16T01:26:00.544Z,16.60
2018-05-16T01:28:29.068Z,16.50
2018-05-16T01:30:56.653Z,16.50
2018-05-16T01:33:24.184Z,16.30
2018-05-16T01:35:51.723Z,16.30
2018-05-16T01:38:19.332Z,16.10
2018-05-16T01:40:46.901Z,16.00
2018-05-16T01:43:14.420Z,16.00
2018-05-16T01:45:41.995Z,15.90
2018-05-16T01:48:10.315Z,15.80
2018-05-16T01:50:37.837Z,15.70
2018-05-16T01:53:05.432Z,15.70
2018-05-16T01:55:32.989Z,15.60
2018-05-16T01:58:00.508Z,15.60
2018-05-16T02:00:28.833Z,15.40
2018-05-16T02:02:56.347Z,15.30
2018-05-16T02:05:23.950Z,15.40
2018-05-16T02:07:51.511Z,15.30
2018-05-16T02:10:19.042Z,15.20
2018-05-16T02:12:46.649Z,15.20
2018-05-16T02:15:14.150Z,15.10
2018-05-16T02:17:41.670Z,15.10
2018-05-16T02:20:09.199Z,15.10
2018-05-16T02:22:36.809Z,15.00
2018-05-16T02:25:05.086Z,14.90
2018-05-16T02:27:33.384Z,14.90
2018-05-16T02:30:00.981Z,14.80
2018-05-16T02:32:28.601Z,14.90
2018-05-16T02:34:56.136Z,14.90
2018-05-16T02:37:24.531Z,14.80
2018-05-16T02:39:51.991Z,14.70
2018-05-16T02:42:19.516Z,14.70
2018-05-16T02:44:47.834Z,14.80
2018-05-16T02:47:15.416Z,14.80
2018-05-16T02:49:42.953Z,14.80
2018-05-16T02:52:10.552Z,14.80
2018-05-16T02:54:38.119Z,14.90
2018-05-16T02:57:05.743Z,14.90
2018-05-16T02:59:33.400Z,14.80
2018-05-16T03:02:00.939Z,14.80
2018-05-16T03:04:28.527Z,14.80
2018-05-16T03:06:56.093Z,14.80
2018-05-16T03:09:23.616Z,14.70
2018-05-16T03:11:51.209Z,14.70
2018-05-16T03:14:18.763Z,14.80
2018-05-16T03:16:46.306Z,14.80
2018-05-16T03:19:13.840Z,14.80
2018-05-16T03:21:41.393Z,14.80
2018-05-16T03:24:09.682Z,14.70
2018-05-16T03:26:37.235Z,14.70
2018-05-16T03:29:04.817Z,14.80
2018-05-16T03:31:32.336Z,14.70
2018-05-16T03:34:00.620Z,14.70
2018-05-16T03:36:28.940Z,14.70
2018-05-16T03:38:56.500Z,14.60
2018-05-16T03:41:24.020Z,14.70
2018-05-16T03:43:51.825Z,14.60
2018-05-16T03:46:19.372Z,14.70
2018-05-16T03:48:46.884Z,14.70
2018-05-16T03:51:15.201Z,14.60
2018-05-16T03:53:42.720Z,14.60
2018-05-16T03:56:11.030Z,14.60
2018-05-16T03:58:50.537Z,14.50
2018-05-16T04:01:30.879Z,14.60
2018-05-16T04:04:19.281Z,14.50
2018-05-16T04:06:46.803Z,14.50
2018-05-16T04:09:15.125Z,14.50
2018-05-16T04:11:42.699Z,14.50
2018-05-16T04:14:10.213Z,14.50
2018-05-16T04:16:37.737Z,14.50
2018-05-16T04:19:05.300Z,14.50
2018-05-16T04:21:33.631Z,14.40
2018-05-16T04:24:01.149Z,14.40
2018-05-16T04:26:29.468Z,14.40
2018-05-16T04:28:56.998Z,14.30
2018-05-16T04:31:24.524Z,14.40
2018-05-16T04:33:52.233Z,14.40
2018-05-16T04:36:19.766Z,14.50
2018-05-16T04:38:48.053Z,14.50
2018-05-16T04:41:15.616Z,14.50
2018-05-16T04:43:43.142Z,14.60
2018-05-16T04:46:10.708Z,14.60
2018-05-16T04:48:39.064Z,14.60
2018-05-16T04:51:06.613Z,14.60
2018-05-16T04:53:34.144Z,14.70
2018-05-16T04:56:01.694Z,14.70
2018-05-16T04:58:29.263Z,14.70
2018-05-16T05:00:56.881Z,14.80
2018-05-16T05:03:24.390Z,14.80
2018-05-16T05:05:51.928Z,14.90
2018-05-16T05:08:20.154Z,15.00
2018-05-16T05:10:47.707Z,15.10
2018-05-16T05:13:15.239Z,15.20
2018-05-16T05:15:42.803Z,15.30
2018-05-16T05:18:10.387Z,15.50
2018-05-16T05:20:38.685Z,15.80
2018-05-16T05:23:09.949Z,15.80
2018-05-16T05:25:37.521Z,15.70
2018-05-16T05:28:05.140Z,15.80
2018-05-16T05:30:33.480Z,15.80
2018-05-16T05:33:01.005Z,15.70
2018-05-16T05:35:28.548Z,15.80
2018-05-16T05:37:56.873Z,15.70
2018-05-16T05:40:24.427Z,15.70
2018-05-16T05:42:51.942Z,15.70
2018-05-16T05:45:20.291Z,15.50
2018-05-16T05:47:47.834Z,15.40
2018-05-16T05:50:15.371Z,15.40
2018-05-16T05:55:36.440Z,15.40
2018-05-16T05:58:03.969Z,15.40
2018-05-16T06:00:31.485Z,15.40
2018-05-16T06:02:59.072Z,15.40
2018-05-16T06:05:26.691Z,15.40
2018-05-16T06:07:54.175Z,15.40
2018-05-16T06:10:21.734Z,15.40
2018-05-16T06:12:49.785Z,15.40
2018-05-16T06:15:17.238Z,15.40
2018-05-16T06:17:45.659Z,15.40
2018-05-16T06:20:13.217Z,15.30
2018-05-16T06:22:40.778Z,15.40
2018-05-16T06:25:08.340Z,15.30
2018-05-16T06:27:35.897Z,15.20
2018-05-16T06:30:03.453Z,15.10
2018-05-16T06:32:31.009Z,15.10
2018-05-16T06:34:58.553Z,15.10
2018-05-16T06:37:26.072Z,15.10
2018-05-16T06:39:54.398Z,15.00
2018-05-16T06:42:21.937Z,14.90
2018-05-16T06:44:49.467Z,14.90
2018-05-16T06:47:17.803Z,14.90
2018-05-16T06:49:45.346Z,14.80
2018-05-16T06:52:12.907Z,14.90
2018-05-16T06:54:40.445Z,15.00
2018-05-16T06:57:08.022Z,15.00
2018-05-16T06:59:35.546Z,15.20
2018-05-16T07:02:03.961Z,15.30
2018-05-16T07:04:31.608Z,15.30
2018-05-16T07:06:59.139Z,15.50
2018-05-16T07:09:27.564Z,15.60
2018-05-16T07:11:55.105Z,15.50
2018-05-16T07:14:22.680Z,15.70
2018-05-16T07:16:50.344Z,15.80
2018-05-16T07:19:17.885Z,15.90
2018-05-16T07:21:45.433Z,16.00
2018-05-16T07:24:13.029Z,15.90
2018-05-16T07:26:40.546Z,15.90
2018-05-16T07:29:08.120Z,15.90
2018-05-16T07:31:35.750Z,15.80
2018-05-16T07:34:04.073Z,16.00
2018-05-16T07:36:31.613Z,16.00
2018-05-16T07:38:59.179Z,16.10
2018-05-16T07:41:26.696Z,16.20
2018-05-16T07:43:54.997Z,16.20
2018-05-16T07:46:22.550Z,16.20
2018-05-16T07:48:50.124Z,16.10
2018-05-16T07:51:17.747Z,16.10
2018-05-16T07:53:45.345Z,15.90
2018-05-16T07:56:12.917Z,15.80
2018-05-16T07:58:40.485Z,15.90
2018-05-16T08:01:08.124Z,16.00
2018-05-16T08:03:35.649Z,15.90
2018-05-16T08:06:03.962Z,16.00
2018-05-16T08:08:31.523Z,15.90
2018-05-16T08:10:59.057Z,16.00
2018-05-16T08:13:26.643Z,16.10
2018-05-16T08:15:54.312Z,16.10
2018-05-16T08:18:21.848Z,16.10
2018-05-16T08:20:49.364Z,16.10
2018-05-16T08:23:16.930Z,16.10
2018-05-16T08:25:45.215Z,16.10
2018-05-16T08:28:13.506Z,16.20
2018-05-16T08:30:41.080Z,16.10
2018-05-16T08:33:08.616Z,16.40
2018-05-16T08:35:36.137Z,16.60
2018-05-16T08:38:03.694Z,16.80
2018-05-16T08:40:31.322Z,16.90
2018-05-16T08:42:58.935Z,16.90
2018-05-16T08:45:26.457Z,16.80
2018-05-16T08:47:53.993Z,16.80
2018-05-16T08:50:21.536Z,16.70
2018-05-16T08:52:49.110Z,16.80
2018-05-16T08:55:16.643Z,16.80
2018-05-16T08:57:44.954Z,16.50
2018-05-16T09:00:12.936Z,16.40
2018-05-16T09:02:40.474Z,16.40
2018-05-16T09:05:08.012Z,16.40
2018-05-16T09:07:35.558Z,16.30
2018-05-16T09:10:03.857Z,16.50
2018-05-16T09:12:31.426Z,16.40
2018-05-16T09:14:58.998Z,16.70
2018-05-16T09:17:26.527Z,16.70
2018-05-16T09:19:54.094Z,16.60
2018-05-16T09:22:21.672Z,16.50
2018-05-16T09:24:49.240Z,16.60
2018-05-16T09:27:16.778Z,16.60
2018-05-16T09:29:44.437Z,16.60
2018-05-16T09:32:12.008Z,16.70
2018-05-16T09:34:39.568Z,16.70
2018-05-16T09:37:07.225Z,16.80
2018-05-16T09:39:34.741Z,17.00
2018-05-16T09:42:03.043Z,17.30
2018-05-16T09:44:31.062Z,17.30
2018-05-16T09:46:58.583Z,17.80
2018-05-16T09:49:27.171Z,18.10
2018-05-16T09:51:54.729Z,18.40
2018-05-16T09:54:22.270Z,18.60
2018-05-16T09:56:49.800Z,18.60
2018-05-16T09:59:18.129Z,18.90
2018-05-16T10:01:45.665Z,18.90
2018-05-16T10:04:13.198Z,19.10
2018-05-16T10:06:41.610Z,19.50
2018-05-16T10:09:09.145Z,19.50
2018-05-16T10:11:36.676Z,19.80
2018-05-16T10:14:05.097Z,20.30
2018-05-16T10:16:32.639Z,20.30
2018-05-16T10:19:00.225Z,20.30
2018-05-16T10:21:27.764Z,20.40
2018-05-16T10:23:55.341Z,20.40
2018-05-16T10:26:22.856Z,20.30
2018-05-16T10:28:51.235Z,20.10
2018-05-16T10:31:19.523Z,20.30
2018-05-16T10:33:47.889Z,20.40
2018-05-16T10:36:16.220Z,20.70
2018-05-16T10:38:43.780Z,20.60
2018-05-16T10:41:11.317Z,20.70
2018-05-16T10:43:38.878Z,20.60
2018-05-16T10:46:06.417Z,20.90
2018-05-16T10:48:33.989Z,21.30
2018-05-16T10:51:01.537Z,21.30
2018-05-16T10:53:29.063Z,21.00
2018-05-16T10:55:56.689Z,21.20
2018-05-16T10:58:24.263Z,21.50
2018-05-16T11:00:51.895Z,21.60
2018-05-16T11:03:19.432Z,21.80
2018-05-16T11:05:47.021Z,21.70
2018-05-16T11:08:14.546Z,21.70
2018-05-16T11:10:42.069Z,21.90
2018-05-16T11:13:09.635Z,22.30
2018-05-16T11:15:37.958Z,22.50
2018-05-16T11:18:05.491Z,22.50
2018-05-16T11:20:33.915Z,22.30
2018-05-16T11:23:01.467Z,22.30
2018-05-16T11:25:29.027Z,22.60
2018-05-16T11:27:56.576Z,23.20
2018-05-16T11:30:24.145Z,22.80
2018-05-16T11:32:51.681Z,22.80
2018-05-16T11:35:19.245Z,22.90
2018-05-16T11:37:47.123Z,22.90
2018-05-16T11:40:14.368Z,23.10
2018-05-16T11:42:41.937Z,23.10
2018-05-16T11:45:09.458Z,23.30
2018-05-16T11:47:36.979Z,23.60
2018-05-16T11:50:04.625Z,23.50
2018-05-16T11:52:32.221Z,23.50
2018-05-16T11:55:00.519Z,23.80
2018-05-16T11:57:28.084Z,23.70
2018-05-16T11:59:55.620Z,23.90
2018-05-16T12:02:23.926Z,23.60
2018-05-16T12:04:51.492Z,23.50
2018-05-16T12:07:19.059Z,23.50
2018-05-16T12:09:46.600Z,23.60
2018-05-16T12:12:14.164Z,23.50
2018-05-16T12:14:41.783Z,23.40
2018-05-16T12:17:09.252Z,23.20
2018-05-16T12:19:37.662Z,23.20
2018-05-16T12:22:05.207Z,23.20
2018-05-16T12:24:32.742Z,23.50
2018-05-16T12:27:01.062Z,24.30
2018-05-16T12:29:28.585Z,24.20
2018-05-16T12:31:56.889Z,25.10
2018-05-16T12:34:24.461Z,25.00
2018-05-16T12:36:51.993Z,25.10
2018-05-16T12:39:19.575Z,24.30
2018-05-16T12:41:47.472Z,24.20
2018-05-16T12:44:15.023Z,24.70
2018-05-16T12:46:42.617Z,24.90
2018-05-16T12:49:10.928Z,24.90
2018-05-16T12:51:38.463Z,24.90
2018-05-16T12:54:05.991Z,24.90
2018-05-16T12:56:35.051Z,24.00
2018-05-16T12:59:02.594Z,24.00
2018-05-16T13:01:30.163Z,23.40
2018-05-16T13:03:57.728Z,23.40
2018-05-16T13:06:25.245Z,23.10
2018-05-16T13:08:53.524Z,22.90
2018-05-16T13:11:21.848Z,22.70
2018-05-16T13:13:49.610Z,22.60
2018-05-16T13:16:17.173Z,22.80
2018-05-16T13:18:44.732Z,22.30
2018-05-16T13:21:12.679Z,22.40
2018-05-16T13:23:40.215Z,22.60
2018-05-16T13:26:07.805Z,22.90
2018-05-16T13:28:35.341Z,23.30
2018-05-16T13:31:02.910Z,22.80
2018-05-16T13:33:30.460Z,22.70
2018-05-16T13:35:57.993Z,22.40
2018-05-16T13:38:26.320Z,22.70
2018-05-16T13:40:53.966Z,22.70
2018-05-16T13:43:21.538Z,22.50
2018-05-16T13:45:49.109Z,23.30
2018-05-16T13:48:18.157Z,23.80
2018-05-16T13:50:45.695Z,23.80
2018-05-16T13:53:13.239Z,23.40
2018-05-16T13:55:40.779Z,22.20
2018-05-16T13:58:08.420Z,22.70
2018-05-16T14:00:35.948Z,22.40
2018-05-16T14:03:03.470Z,21.60
2018-05-16T14:05:31.010Z,21.00
2018-05-16T14:07:58.529Z,20.50
2018-05-16T14:10:26.085Z,20.70
2018-05-16T14:12:53.606Z,21.10
2018-05-16T14:15:21.992Z,21.30
2018-05-16T14:17:49.608Z,21.20
2018-05-16T14:20:17.155Z,20.70
2018-05-16T14:22:44.731Z,20.30
2018-05-16T14:25:12.274Z,20.80
2018-05-16T14:27:39.790Z,22.00
2018-05-16T14:30:08.103Z,22.40
2018-05-16T14:32:35.677Z,22.40
2018-05-16T14:35:03.335Z,22.60
2018-05-16T14:37:30.869Z,22.40
2018-05-16T14:39:58.431Z,22.30
2018-05-16T14:42:26.001Z,22.80
2018-05-16T14:44:53.535Z,22.00
2018-05-16T14:47:21.117Z,21.80
2018-05-16T14:49:48.685Z,22.40
2018-05-16T14:52:16.242Z,22.30
2018-05-16T14:54:43.752Z,22.40
2018-05-16T14:57:12.179Z,22.90
2018-05-16T14:59:39.745Z,22.80
2018-05-16T15:02:07.264Z,22.50
2018-05-16T15:04:35.155Z,22.00
2018-05-16T15:07:02.731Z,21.90
2018-05-16T15:09:30.257Z,22.00
2018-05-16T15:11:57.842Z,21.50
2018-05-16T15:14:25.374Z,21.50
2018-05-16T15:16:52.957Z,22.40
2018-05-16T15:19:20.542Z,22.60
2018-05-16T15:21:48.079Z,22.10
2018-05-16T15:24:15.597Z,22.70
2018-05-16T15:26:44.021Z,22.30
2018-05-16T15:29:11.566Z,22.30
2018-05-16T15:31:39.086Z,21.60
2018-05-16T15:34:07.810Z,20.80
2018-05-16T15:36:35.346Z,20.80
2018-05-16T15:39:02.861Z,20.70
2018-05-16T15:41:30.481Z,22.20
2018-05-16T15:43:57.995Z,22.60
2018-05-16T15:46:26.328Z,21.70
2018-05-16T15:48:53.895Z,21.70
2018-05-16T15:51:21.452Z,20.80
2018-05-16T15:53:48.974Z,21.10
2018-05-16T15:56:16.525Z,21.00
2018-05-16T15:58:44.836Z,21.10
2018-05-16T16:01:12.390Z,21.10
2018-05-16T16:03:39.949Z,20.70
2018-05-16T16:06:07.789Z,21.00
2018-05-16T16:08:35.382Z,20.50
2018-05-16T16:11:03.432Z,20.40
2018-05-16T16:13:30.962Z,20.70
2018-05-16T16:15:59.274Z,19.80
2018-05-16T16:18:26.916Z,19.70
2018-05-16T16:20:54.440Z,19.50
2018-05-16T16:23:21.977Z,19.10
2018-05-16T16:25:49.518Z,19.80
2018-05-16T16:28:17.065Z,19.90
2018-05-16T16:30:44.588Z,20.10
2018-05-16T16:33:12.916Z,19.50
2018-05-16T16:35:40.460Z,19.40
2018-05-16T16:38:07.989Z,18.80
2018-05-16T16:40:40.389Z,19.00
2018-05-16T16:43:07.953Z,18.90
2018-05-16T16:45:35.507Z,18.50
2018-05-16T16:48:03.070Z,18.30
2018-05-16T16:50:30.626Z,17.90
2018-05-16T16:52:58.146Z,17.40
2018-05-16T16:55:26.464Z,16.50
2018-05-16T16:57:54.000Z,16.50
2018-05-16T17:00:21.583Z,16.40
2018-05-16T17:02:49.136Z,16.20
2018-05-16T17:05:16.656Z,16.00
2018-05-16T17:07:44.955Z,15.80
2018-05-16T17:10:13.063Z,15.70
2018-05-16T17:12:40.603Z,15.70
2018-05-16T17:15:08.125Z,15.50
2018-05-16T17:17:36.458Z,15.30
2018-05-16T17:20:04.123Z,15.30
2018-05-16T17:22:31.658Z,15.40
2018-05-16T17:24:59.232Z,15.30
2018-05-16T17:27:26.801Z,15.20
2018-05-16T17:29:54.319Z,15.10
2018-05-16T17:32:21.889Z,15.10
2018-05-16T17:34:49.460Z,14.90
2018-05-16T17:37:17.002Z,14.90
2018-05-16T17:39:44.544Z,15.00
2018-05-16T17:42:13.290Z,14.90
2018-05-16T17:44:41.313Z,14.50
2018-05-16T17:47:08.858Z,14.40
2018-05-16T17:49:36.388Z,14.20
2018-05-16T17:52:03.915Z,14.20
2018-05-16T17:54:31.458Z,14.20
2018-05-16T17:56:58.994Z,14.10
2018-05-16T17:59:27.095Z,14.10
2018-05-16T18:01:54.669Z,14.10
2018-05-16T18:04:22.203Z,14.10
2018-05-16T18:06:49.776Z,14.00
2018-05-16T18:09:18.349Z,14.00
2018-05-16T18:11:45.868Z,14.00
2018-05-16T18:14:25.951Z,14.00
2018-05-16T18:17:05.418Z,13.90
2018-05-16T18:19:33.054Z,13.90
2018-05-16T18:22:00.627Z,13.80
2018-05-16T18:24:28.168Z,13.70
2018-05-16T18:26:55.747Z,13.60
2018-05-16T18:29:23.280Z,13.50
2018-05-16T18:31:50.825Z,13.50
2018-05-16T18:34:19.327Z,13.50
2018-05-16T18:36:46.905Z,13.50
2018-05-16T18:39:14.849Z,13.60
2018-05-16T18:41:42.420Z,13.50
2018-05-16T18:44:10.010Z,13.40
2018-05-16T18:46:37.547Z,13.40
2018-05-16T18:49:05.108Z,13.30
2018-05-16T18:51:32.645Z,13.20
2018-05-16T18:54:00.599Z,13.20
2018-05-16T18:56:28.164Z,13.10
2018-05-16T18:58:55.739Z,13.00
2018-05-16T19:01:23.253Z,13.10
2018-05-16T19:03:51.560Z,13.10
2018-05-16T19:06:19.127Z,13.00
2018-05-16T19:08:46.980Z,13.00
2018-05-16T19:11:14.557Z,13.00
2018-05-16T19:13:42.125Z,13.00
2018-05-16T19:16:09.652Z,13.00
2018-05-16T19:18:37.236Z,13.00
2018-05-16T19:21:04.762Z,12.90
2018-05-16T19:23:32.306Z,12.90
2018-05-16T19:26:00.731Z,12.70
2018-05-16T19:28:28.267Z,12.70
2018-05-16T19:30:55.801Z,12.70
2018-05-16T19:33:24.150Z,12.70
2018-05-16T19:35:51.674Z,12.60
2018-05-16T19:38:19.202Z,12.70
2018-05-16T19:40:47.615Z,12.60
2018-05-16T19:43:15.175Z,12.50
2018-05-16T19:45:42.734Z,12.60
2018-05-16T19:48:10.295Z,12.60
2018-05-16T19:50:37.889Z,12.50
2018-05-16T19:53:05.417Z,12.40
2018-05-16T19:55:33.074Z,12.40
2018-05-16T19:58:00.722Z,12.40
2018-05-16T20:00:28.304Z,12.30
2018-05-16T20:02:55.879Z,12.30
2018-05-16T20:05:23.431Z,12.20
2018-05-16T20:07:51.088Z,12.10
2018-05-16T20:10:18.735Z,12.10
2018-05-16T20:12:46.257Z,12.10
2018-05-16T20:15:14.297Z,12.00
2018-05-16T20:17:41.866Z,12.00
2018-05-16T20:20:10.158Z,11.90
2018-05-16T20:22:38.461Z,11.90
2018-05-16T20:25:06.791Z,11.80
2018-05-16T20:27:35.095Z,11.80
2018-05-16T20:30:02.701Z,11.70
2018-05-16T20:32:30.329Z,11.70
2018-05-16T20:34:57.863Z,11.60
2018-05-16T20:37:25.399Z,11.50
2018-05-16T20:39:52.992Z,11.50
2018-05-16T20:42:20.504Z,11.40
2018-05-16T20:44:48.137Z,11.40
2018-05-16T20:47:15.691Z,11.30
2018-05-16T20:49:43.229Z,11.20
2018-05-16T20:52:10.759Z,11.20
2018-05-16T20:54:39.067Z,11.10
2018-05-16T20:57:06.595Z,11.00
2018-05-16T20:59:34.975Z,11.00
2018-05-16T21:02:02.847Z,10.90
2018-05-16T21:04:31.125Z,10.90
2018-05-16T21:06:59.432Z,10.90
2018-05-16T21:09:27.036Z,10.80
2018-05-16T21:11:54.646Z,10.90
2018-05-16T21:14:22.175Z,10.80
2018-05-16T21:16:50.490Z,10.70
2018-05-16T21:19:18.023Z,10.60
2018-05-16T21:21:45.596Z,10.70
2018-05-16T21:24:13.128Z,10.70
2018-05-16T21:26:41.419Z,10.60
2018-05-16T21:29:09.007Z,10.50
2018-05-16T21:31:36.559Z,10.60
2018-05-16T21:34:04.082Z,10.50
2018-05-16T21:36:32.384Z,10.50
2018-05-16T21:38:59.935Z,10.40
2018-05-16T21:41:27.459Z,10.40
2018-05-16T21:43:55.764Z,10.40
2018-05-16T21:46:23.322Z,10.30
2018-05-16T21:48:50.837Z,10.40
2018-05-16T21:51:18.458Z,10.30
2018-05-16T21:53:46.015Z,10.30
2018-05-16T21:56:13.553Z,10.30
2018-05-16T21:58:41.073Z,10.30
2018-05-16T22:01:08.624Z,10.30
2018-05-16T22:03:36.147Z,10.40
2018-05-16T22:06:03.665Z,10.40
2018-05-16T22:08:32.765Z,10.40
2018-05-16T22:11:00.300Z,10.30
2018-05-16T22:13:27.826Z,10.40
2018-05-16T22:15:55.421Z,10.40
2018-05-16T22:18:22.948Z,10.40
2018-05-16T22:20:50.479Z,10.40
2018-05-16T22:23:18.027Z,10.40
2018-05-16T22:25:45.549Z,10.40
2018-05-16T22:28:13.838Z,10.40
2018-05-16T22:30:47.805Z,10.30
2018-05-16T22:33:21.012Z,10.30
2018-05-16T22:35:54.272Z,10.30
2018-05-16T22:38:27.559Z,10.40
2018-05-16T22:41:00.785Z,10.30
2018-05-16T22:43:45.517Z,10.30
2018-05-16T22:46:13.076Z,10.20
2018-05-16T22:48:40.598Z,10.30
2018-05-16T22:51:08.887Z,10.20
2018-05-16T22:53:36.469Z,10.20
2018-05-16T22:56:04.039Z,10.20
2018-05-16T22:58:31.549Z,10.20
2018-05-16T23:00:59.971Z,10.10
2018-05-16T23:03:27.499Z,10.10
2018-05-16T23:05:55.012Z,10.10
2018-05-16T23:08:23.362Z,10.20
2018-05-16T23:10:50.876Z,10.10
2018-05-16T23:13:19.169Z,10.10
2018-05-16T23:15:46.715Z,10.00
2018-05-16T23:18:15.021Z,10.00
2018-05-16T23:20:42.538Z,10.00
2018-05-16T23:23:10.851Z,10.00
2018-05-16T23:25:38.371Z,9.90
2018-05-16T23:28:06.661Z,9.90
2018-05-16T23:30:34.979Z,9.80
2018-05-16T23:33:02.582Z,9.80
2018-05-16T23:35:30.868Z,9.80
2018-05-16T23:37:59.187Z,9.80
2018-05-16T23:40:26.723Z,9.70
2018-05-16T23:42:54.247Z,9.70
2018-05-16T23:45:23.079Z,9.60
2018-05-16T23:47:50.652Z,9.60
2018-05-16T23:50:18.176Z,9.60
2018-05-16T23:52:45.714Z,9.60
2018-05-16T23:55:14.003Z,9.50
2018-05-16T23:57:41.553Z,9.40
